Time;durP1;ratioP1;P1;durP2;ratioP2;P2;SDS_P1;SDS_P2;PMS_P1;PMS_P2;Temp;Humidity;BMP_temperature;BMP_pressure;BME280_temperature;BME280_humidity;BME280_pressure;Samples;Min_cycle;Max_cycle;Signal;HPM_P1;HPM_P2
2021/04/26 00:04:59;;;;;;;10.00;7.13;;;;;;;3.88;55.43;98266.84;10474558;28;20045;-77
2021/04/26 00:10:20;;;;;;;8.23;4.38;;;;;;;3.87;55.49;98265.38;10475726;28;20052;-77
2021/04/26 00:15:41;;;;;;;5.45;2.88;;;;;;;3.84;55.30;98266.44;10475104;28;20399;-77
2021/04/26 00:21:01;;;;;;;4.78;2.85;;;;;;;3.82;55.83;98254.44;10461205;28;20391;-77
2021/04/26 00:26:21;;;;;;;6.32;1.98;;;;;;;3.82;56.05;98259.97;10475241;28;20037;-77
2021/04/26 00:31:42;;;;;;;3.88;1.90;;;;;;;3.78;56.67;98262.34;10460806;28;20403;-77
2021/04/26 00:37:03;;;;;;;3.90;1.70;;;;;;;3.72;56.24;98262.44;10488435;28;20487;-77
2021/04/26 00:42:23;;;;;;;4.57;1.92;;;;;;;3.66;56.71;98270.09;10487412;28;20045;-77
2021/04/26 00:47:45;;;;;;;3.05;1.90;;;;;;;3.55;56.51;98268.31;10473983;28;20055;-77
2021/04/26 00:53:06;;;;;;;4.93;2.13;;;;;;;3.40;56.71;98271.66;10459204;28;20045;-77
2021/04/26 00:58:30;;;;;;;3.72;2.42;;;;;;;3.32;56.91;98275.59;10486053;28;20044;-77
2021/04/26 01:03:51;;;;;;;4.22;2.08;;;;;;;3.28;57.16;98266.88;10457951;28;20047;-77
2021/04/26 01:09:13;;;;;;;4.65;2.58;;;;;;;3.26;57.61;98267.41;10479501;28;20044;-77
2021/04/26 01:14:59;;;;;;;7.95;2.67;;;;;;;3.23;57.75;98256.72;10488057;28;20115;-77
2021/04/26 01:20:44;;;;;;;5.38;2.30;;;;;;;3.16;57.77;98250.56;10472543;28;20044;-78
2021/04/26 01:26:05;;;;;;;5.60;2.67;;;;;;;3.14;58.40;98249.63;10500541;28;20068;-77
2021/04/26 01:31:39;;;;;;;4.40;2.33;;;;;;;3.11;57.64;98250.69;10459295;28;20044;-77
2021/04/26 01:36:59;;;;;;;5.78;2.30;;;;;;;3.08;57.90;98255.22;10473130;28;20102;-77
2021/04/26 01:42:20;;;;;;;4.85;2.55;;;;;;;3.01;58.68;98258.66;10458888;28;20123;-77
2021/04/26 01:47:40;;;;;;;3.75;2.47;;;;;;;2.97;58.71;98246.44;10458677;28;20478;-77
2021/04/26 01:53:03;;;;;;;5.00;2.50;;;;;;;2.88;58.32;98258.63;10459749;28;20054;-77
2021/04/26 01:58:26;;;;;;;6.05;2.60;;;;;;;2.82;58.71;98252.50;10473096;28;20110;-77
2021/04/26 02:04:04;;;;;;;5.65;2.92;;;;;;;2.77;58.83;98251.31;10473096;28;20041;-77
2021/04/26 02:09:50;;;;;;;4.60;2.95;;;;;;;2.72;59.08;98241.16;10472960;28;20051;-77
2021/04/26 02:15:19;;;;;;;6.15;3.30;;;;;;;2.68;58.79;98234.47;10480630;28;20056;-77
2021/04/26 02:20:40;;;;;;;6.00;2.92;;;;;;;2.57;59.55;98222.38;10480380;28;20048;-77
2021/04/26 02:26:00;;;;;;;6.15;2.45;;;;;;;2.62;59.14;98217.31;10465304;28;20502;-77
2021/04/26 02:31:37;;;;;;;4.40;2.70;;;;;;;2.63;60.05;98225.03;10448222;28;20048;-77
2021/04/26 02:37:30;;;;;;;4.82;2.85;;;;;;;2.65;59.93;98216.22;10465211;28;20111;-77
2021/04/26 02:42:52;;;;;;;9.82;3.45;;;;;;;2.62;59.90;98206.28;10479489;28;20040;-77
2021/04/26 02:48:13;;;;;;;7.03;3.53;;;;;;;2.62;59.81;98196.00;10479069;28;20456;-76
2021/04/26 02:53:39;;;;;;;4.85;3.10;;;;;;;2.54;59.44;98195.13;10468135;28;20040;-77
2021/04/26 02:59:00;;;;;;;5.43;3.30;;;;;;;2.40;59.68;98204.66;10465080;28;20094;-77
2021/04/26 03:04:30;;;;;;;5.18;3.17;;;;;;;2.36;60.38;98199.47;10468366;28;20074;-78
2021/04/26 03:09:58;;;;;;;6.97;3.28;;;;;;;2.36;60.19;98193.22;10453051;28;20094;-78
2021/04/26 03:15:26;;;;;;;7.40;3.70;;;;;;;2.25;60.47;98186.63;10478016;28;20490;-77
2021/04/26 03:20:46;;;;;;;7.03;3.53;;;;;;;2.22;60.83;98175.91;10477923;28;20476;-77
2021/04/26 03:26:10;;;;;;;5.05;3.17;;;;;;;2.19;60.15;98179.72;10463334;28;20108;-77
2021/04/26 03:31:31;;;;;;;7.93;3.38;;;;;;;2.06;60.44;98168.69;10474315;28;20498;-78
2021/04/26 03:36:58;;;;;;;4.70;3.20;;;;;;;2.00;61.06;98172.28;10469721;28;20066;-77
2021/04/26 03:42:20;;;;;;;7.40;3.50;;;;;;;1.97;60.68;98153.31;10474811;28;20048;-77
2021/04/26 03:47:43;;;;;;;4.65;2.80;;;;;;;1.99;61.21;98153.53;10465851;28;20049;-78
2021/04/26 03:53:36;;;;;;;5.32;2.85;;;;;;;1.98;61.33;98155.53;10424254;28;20514;-77
2021/04/26 03:59:11;;;;;;;;;;;;;;;2.06;61.57;98154.94;10462117;28;20048;-77
2021/04/26 04:04:33;;;;;;;5.53;2.67;;;;;;;2.13;61.34;98154.31;10472201;28;19920;-78
2021/04/26 04:10:14;;;;;;;5.68;2.58;;;;;;;2.21;61.12;98152.41;10456717;28;20061;-77
2021/04/26 04:15:54;;;;;;;6.38;2.47;;;;;;;2.36;61.35;98149.88;10478919;28;20048;-77
2021/04/26 04:21:18;;;;;;;6.78;2.72;;;;;;;2.50;61.19;98161.63;10474952;28;20087;-77
2021/04/26 04:26:38;;;;;;;6.88;3.15;;;;;;;2.73;60.81;98157.19;10474552;28;20041;-77
2021/04/26 04:32:00;;;;;;;9.45;3.53;;;;;;;2.93;61.26;98147.50;10460376;28;20507;-77
2021/04/26 04:37:43;;;;;;;6.45;2.88;;;;;;;3.20;61.31;98139.91;10470385;28;20055;-77
2021/04/26 04:43:23;;;;;;;8.02;2.97;;;;;;;3.50;60.48;98142.22;10478561;28;20472;-77
2021/04/26 04:48:50;;;;;;;6.78;2.78;;;;;;;3.85;60.44;98143.63;10475204;28;20071;-77
2021/04/26 04:54:14;;;;;;;5.88;3.38;;;;;;;4.21;60.26;98140.22;10446781;28;20044;-77
2021/04/26 04:59:47;;;;;;;7.43;3.40;;;;;;;4.55;59.50;98143.59;10458611;28;20098;-77
2021/04/26 05:05:22;;;;;;;;;;;;;;;4.96;58.53;98139.19;10464602;28;20098;-77
2021/04/26 05:11:03;;;;;;;6.63;3.50;;;;;;;5.56;58.04;98143.41;10490043;28;19927;-77
2021/04/26 05:16:58;;;;;;;7.40;3.40;;;;;;;6.43;57.89;98142.31;10455744;28;20055;-78
2021/04/26 05:22:19;;;;;;;7.53;3.60;;;;;;;8.06;54.78;98145.22;10455066;28;20402;-77
2021/04/26 05:27:50;;;;;;;4.95;3.42;;;;;;;15.63;58.89;98140.50;10451119;28;20033;-78
2021/04/26 05:33:12;;;;;;;5.97;2.92;;;;;;;23.17;43.95;98145.41;10430172;28;20045;-78
2021/04/26 05:38:48;;;;;;;5.07;2.55;;;;;;;28.76;29.68;98141.38;10471031;28;20036;-79
2021/04/26 05:44:09;;;;;;;4.40;2.38;;;;;;;30.70;19.15;98149.66;10467732;28;20043;-78
2021/04/26 05:49:50;;;;;;;4.97;2.70;;;;;;;29.42;18.07;98147.84;10489252;28;20044;-78
2021/04/26 05:55:10;;;;;;;5.27;2.50;;;;;;;33.51;14.91;98146.41;10453894;28;20505;-77
2021/04/26 06:00:32;;;;;;;6.18;2.67;;;;;;;37.85;11.14;98149.56;10470291;28;20396;-78
2021/04/26 06:05:53;;;;;;;4.55;1.88;;;;;;;40.88;8.03;98148.66;10483906;28;20479;-75
2021/04/26 06:11:13;;;;;;;5.03;2.05;;;;;;;40.46;6.92;98140.38;10474744;28;20052;-77
2021/04/26 06:16:33;;;;;;;4.00;2.00;;;;;;;42.91;6.30;98139.53;10470075;28;20051;-77
2021/04/26 06:21:54;;;;;;;6.03;1.90;;;;;;;45.42;4.50;98133.56;10469128;28;20071;-77
2021/04/26 06:27:14;;;;;;;3.42;1.73;;;;;;;46.77;3.65;98143.94;10434085;28;20164;-77
2021/04/26 06:32:35;;;;;;;10.05;2.13;;;;;;;46.19;3.52;98134.81;10433771;28;20094;-78
2021/04/26 06:37:55;;;;;;;2.45;1.58;;;;;;;44.50;3.77;98128.47;10433714;28;20099;-79
2021/04/26 06:43:16;;;;;;;6.63;1.77;;;;;;;44.70;4.03;98123.53;10419244;28;20045;-78
2021/04/26 06:48:36;;;;;;;3.35;1.90;;;;;;;45.60;3.74;98117.56;10446972;28;20045;-79
2021/04/26 06:53:56;;;;;;;2.78;1.70;;;;;;;46.04;3.05;98116.00;10433226;28;20391;-77
2021/04/26 06:59:17;;;;;;;2.90;1.60;;;;;;;46.66;3.12;98113.06;10431976;28;20044;-78
2021/04/26 07:04:38;;;;;;;6.40;1.50;;;;;;;47.22;2.87;98122.22;10418794;28;20056;-78
2021/04/26 07:09:59;;;;;;;5.22;1.70;;;;;;;47.41;2.32;98106.75;10474480;28;20053;-77
2021/04/26 07:15:19;;;;;;;6.72;1.80;;;;;;;47.50;2.85;98113.44;10473532;28;20403;-77
2021/04/26 07:20:39;;;;;;;3.35;2.00;;;;;;;47.82;2.26;98110.91;10471690;28;20033;-75
2021/04/26 07:26:01;;;;;;;4.18;1.70;;;;;;;48.32;2.33;98102.56;10479369;28;20508;-77
2021/04/26 07:31:22;;;;;;;5.15;1.83;;;;;;;47.54;2.10;98110.88;10467081;28;20045;-77
2021/04/26 07:36:42;;;;;;;3.33;1.80;;;;;;;48.82;2.15;98111.13;10457980;28;20110;-78
2021/04/26 07:42:03;;;;;;;4.07;1.30;;;;;;;49.32;1.63;98097.28;10471093;28;20494;-77
2021/04/26 07:47:23;;;;;;;2.95;1.42;;;;;;;49.41;1.34;98086.13;10471637;28;20403;-78
2021/04/26 07:52:44;;;;;;;3.00;1.13;;;;;;;49.42;1.02;98096.44;10466258;28;20044;-77
2021/04/26 07:58:04;;;;;;;6.15;1.27;;;;;;;48.37;1.29;98091.78;10470605;28;20475;-76
2021/04/26 08:03:25;;;;;;;2.72;0.70;;;;;;;49.82;0.82;98088.59;10467077;28;20507;-80
2021/04/26 08:08:45;;;;;;;0.98;0.30;;;;;;;51.31;0.13;98087.75;10466287;28;20413;-77
2021/04/26 08:14:05;;;;;;;1.63;0.35;;;;;;;51.89;0.00;98083.78;10454755;28;20434;-78
2021/04/26 08:19:26;;;;;;;0.90;0.30;;;;;;;47.48;0.90;98072.91;10456793;28;20040;-76
2021/04/26 08:24:46;;;;;;;3.42;0.60;;;;;;;49.46;0.60;98074.63;10484453;28;20044;-82
2021/04/26 08:30:07;;;;;;;2.72;0.50;;;;;;;50.45;0.00;98065.19;10456633;28;20098;-76
2021/04/26 08:35:28;;;;;;;1.27;0.50;;;;;;;52.10;0.00;98076.56;10470209;28;20051;-76
2021/04/26 08:40:48;;;;;;;1.40;0.45;;;;;;;53.30;0.00;98076.53;10456070;28;20051;-77
2021/04/26 08:46:11;;;;;;;2.75;0.50;;;;;;;53.88;0.00;98071.34;10470328;28;20048;-76
2021/04/26 08:51:32;;;;;;;4.68;0.50;;;;;;;54.45;0.00;98066.00;10469957;28;20056;-77
2021/04/26 08:56:52;;;;;;;3.08;0.80;;;;;;;55.44;0.00;98062.66;10469693;28;20044;-75
2021/04/26 09:02:13;;;;;;;1.98;0.55;;;;;;;55.24;0.00;98058.94;10455357;28;20048;-77
2021/04/26 09:07:33;;;;;;;2.45;0.50;;;;;;;54.55;0.00;98073.84;10498121;28;20067;-78
2021/04/26 09:12:55;;;;;;;2.40;0.50;;;;;;;48.62;0.00;98054.94;10448438;28;20048;-76
2021/04/26 09:18:15;;;;;;;3.88;0.77;;;;;;;38.26;2.24;98047.50;10457481;28;20395;-78
2021/04/26 09:23:35;;;;;;;2.22;0.73;;;;;;;31.30;5.29;98041.09;10451975;28;20049;-76
2021/04/26 09:29:15;;;;;;;1.10;0.57;;;;;;;27.94;6.94;98034.22;10413811;28;20045;-76
2021/04/26 09:34:36;;;;;;;1.87;1.17;;;;;;;29.15;8.21;98023.59;10441005;28;20055;-76
2021/04/26 09:40:14;;;;;;;1.70;0.50;;;;;;;41.13;4.08;98031.78;10487800;28;20045;-76
2021/04/26 09:45:55;;;;;;;1.73;0.50;;;;;;;46.79;1.63;98022.03;10467795;28;20445;-75
2021/04/26 09:51:20;;;;;;;2.33;0.77;;;;;;;46.79;0.91;98010.22;10464188;28;20480;-76
2021/04/26 09:56:45;;;;;;;2.25;0.70;;;;;;;48.86;0.60;98004.84;10468800;28;20041;-76
2021/04/26 10:02:08;;;;;;;2.85;0.70;;;;;;;49.72;0.43;98001.19;10468804;28;20450;-76
2021/04/26 10:07:29;;;;;;;1.33;0.50;;;;;;;48.80;0.80;97999.44;10468118;28;20057;-74
2021/04/26 10:12:50;;;;;;;4.03;0.70;;;;;;;47.71;0.66;97986.13;10468122;28;20044;-74
2021/04/26 10:18:11;;;;;;;2.67;0.70;;;;;;;48.40;0.69;97976.88;10453063;28;20471;-74
2021/04/26 10:23:43;;;;;;;3.03;1.00;;;;;;;49.26;0.21;97970.38;10452658;28;20037;-76
2021/04/26 10:29:32;;;;;;;0.90;0.60;;;;;;;50.34;0.48;97960.81;10454952;28;20098;-75
2021/04/26 10:34:55;;;;;;;0.98;0.57;;;;;;;48.87;0.04;97944.06;10452416;28;20055;-75
2021/04/26 10:40:23;;;;;;;3.13;0.75;;;;;;;41.42;1.95;97934.38;10483966;28;20041;-74
2021/04/26 10:45:45;;;;;;;1.10;0.70;;;;;;;34.11;4.62;97930.25;10476712;28;20400;-77
2021/04/26 10:51:23;;;;;;;3.95;1.05;;;;;;;29.84;6.43;97930.63;10460244;28;20045;-76
2021/04/26 10:56:44;;;;;;;4.22;0.90;;;;;;;27.02;7.94;97926.28;10451352;28;20506;-73
2021/04/26 11:02:06;;;;;;;4.35;0.93;;;;;;;24.38;9.52;97918.44;10471027;28;20525;-77
2021/04/26 11:07:36;;;;;;;4.88;1.05;;;;;;;23.82;10.87;97925.28;10483741;28;20053;-75
2021/04/26 11:12:59;;;;;;;2.72;0.80;;;;;;;22.76;11.14;97903.19;10470212;28;20536;-76
2021/04/26 11:18:19;;;;;;;4.38;1.02;;;;;;;21.19;12.23;97912.69;10455942;28;20044;-77
2021/04/26 11:23:52;;;;;;;5.55;1.10;;;;;;;20.66;13.41;97896.97;10482946;28;20403;-75
2021/04/26 11:29:16;;;;;;;3.97;0.93;;;;;;;19.69;14.17;97897.38;10468512;28;20044;-75
2021/04/26 11:35:07;;;;;;;2.10;1.10;;;;;;;19.24;14.56;97883.72;10455349;28;20036;-75
2021/04/26 11:40:31;;;;;;;2.72;1.13;;;;;;;18.97;14.84;97874.28;10466629;28;20505;-76
2021/04/26 11:45:51;;;;;;;2.40;1.00;;;;;;;18.69;15.02;97870.41;10453990;28;20079;-77
2021/04/26 11:51:31;;;;;;;2.78;1.10;;;;;;;18.29;15.50;97862.50;10448524;28;20097;-75
2021/04/26 11:57:27;;;;;;;4.43;1.33;;;;;;;17.92;16.24;97851.84;10471792;28;20480;-75
2021/04/26 12:02:49;;;;;;;6.10;0.90;;;;;;;17.78;16.25;97856.94;10478879;28;20056;-76
2021/04/26 12:08:11;;;;;;;;;;;;;;;18.19;16.52;97841.63;10459140;28;20053;-76
2021/04/26 12:13:35;;;;;;;3.47;1.08;;;;;;;18.72;16.60;97846.47;10485608;28;19973;-78
2021/04/26 12:18:58;;;;;;;3.35;1.17;;;;;;;18.91;16.20;97837.28;10457039;28;20094;-76
2021/04/26 12:24:18;;;;;;;2.50;1.00;;;;;;;19.05;15.97;97837.81;10442585;28;20402;-77
2021/04/26 12:29:39;;;;;;;6.50;1.30;;;;;;;18.85;16.08;97823.66;10484402;28;20048;-76
2021/04/26 12:35:02;;;;;;;4.47;1.02;;;;;;;18.63;15.97;97824.94;10470214;28;20052;-75
2021/04/26 12:40:33;;;;;;;3.17;0.88;;;;;;;18.47;16.16;97808.81;10470228;28;20044;-75
2021/04/26 12:45:53;;;;;;;2.85;0.75;;;;;;;18.48;16.05;97809.53;10484013;28;20068;-76
2021/04/26 12:51:30;;;;;;;3.42;1.23;;;;;;;18.42;16.23;97793.06;10460174;28;20082;-75
2021/04/26 12:56:59;;;;;;;6.18;0.85;;;;;;;18.38;16.20;97795.03;10469738;28;20036;-75
2021/04/26 13:02:23;;;;;;;4.40;1.00;;;;;;;18.14;16.19;97791.97;10468708;28;20044;-75
2021/04/26 13:07:44;;;;;;;6.10;1.55;;;;;;;17.95;16.45;97779.25;10469042;28;20487;-75
2021/04/26 13:13:04;;;;;;;3.63;1.00;;;;;;;17.46;16.49;97771.63;10469193;28;20480;-76
2021/04/26 13:18:26;;;;;;;5.53;1.35;;;;;;;17.06;16.61;97768.56;10469378;28;20044;-76
2021/04/26 13:23:52;;;;;;;4.90;1.48;;;;;;;16.33;17.16;97745.63;10468891;28;20044;-75
2021/04/26 13:29:19;;;;;;;2.65;1.25;;;;;;;15.81;17.53;97750.28;10483947;28;20068;-75
2021/04/26 13:34:42;;;;;;;4.43;0.90;;;;;;;15.54;17.86;97741.91;10469352;28;20055;-75
2021/04/26 13:40:03;;;;;;;3.85;1.10;;;;;;;15.72;17.66;97737.91;10469375;28;20045;-77
2021/04/26 13:45:23;;;;;;;5.65;1.20;;;;;;;16.07;17.68;97744.44;10469074;28;20048;-76
2021/04/26 13:50:44;;;;;;;6.35;0.77;;;;;;;16.24;17.58;97733.28;10468682;28;20391;-75
2021/04/26 13:56:07;;;;;;;5.95;1.52;;;;;;;16.44;17.27;97724.28;10468386;28;20044;-75
2021/04/26 14:01:27;;;;;;;3.63;0.98;;;;;;;16.17;17.28;97728.72;10469673;28;20041;-76
2021/04/26 14:06:48;;;;;;;2.28;0.90;;;;;;;15.77;17.65;97713.50;10472756;28;20060;-76
2021/04/26 14:12:09;;;;;;;1.70;0.90;;;;;;;15.51;17.89;97710.16;10450569;28;20040;-76
2021/04/26 14:17:30;;;;;;;3.65;1.10;;;;;;;15.40;18.19;97702.59;10478588;28;20043;-76
2021/04/26 14:22:50;;;;;;;4.90;1.23;;;;;;;15.36;18.24;97703.13;10463125;28;20048;-75
2021/04/26 14:28:11;;;;;;;2.92;1.15;;;;;;;15.23;18.26;97689.09;10490555;28;20368;-77
2021/04/26 14:33:32;;;;;;;4.22;0.93;;;;;;;14.72;18.47;97687.34;10477374;28;20033;-77
2021/04/26 14:38:52;;;;;;;2.88;0.93;;;;;;;14.57;18.69;97680.28;10476923;28;20048;-76
2021/04/26 14:44:13;;;;;;;2.70;0.90;;;;;;;14.66;18.71;97675.78;10463562;28;20051;-76
2021/04/26 14:49:38;;;;;;;2.00;0.80;;;;;;;14.70;18.69;97664.03;10477900;28;20040;-77
2021/04/26 14:54:58;;;;;;;3.75;1.17;;;;;;;14.32;19.13;97666.31;10476720;28;20043;-75
2021/04/26 15:00:23;;;;;;;3.42;1.90;;;;;;;13.98;19.08;97659.63;10476196;28;20095;-76
2021/04/26 15:05:43;;;;;;;2.20;0.70;;;;;;;13.81;19.11;97654.50;10490258;28;20053;-76
2021/04/26 15:11:06;;;;;;;4.60;0.60;;;;;;;13.59;19.30;97645.63;10475225;28;20114;-77
2021/04/26 15:16:28;;;;;;;5.88;0.88;;;;;;;13.62;19.46;97638.78;10475328;28;20036;-75
2021/04/26 15:21:48;;;;;;;2.00;0.68;;;;;;;13.66;19.56;97639.00;10475245;28;20052;-75
2021/04/26 15:27:09;;;;;;;1.17;0.57;;;;;;;13.54;19.61;97632.72;10474811;28;20043;-75
2021/04/26 15:32:31;;;;;;;1.60;0.63;;;;;;;13.52;19.48;97629.81;10475216;28;20036;-76
2021/04/26 15:37:52;;;;;;;1.58;0.68;;;;;;;13.31;19.75;97634.31;10474159;28;20051;-75
2021/04/26 15:43:13;;;;;;;2.42;0.80;;;;;;;13.16;19.73;97634.84;10473310;28;20049;-75
2021/04/26 15:48:34;;;;;;;1.75;0.60;;;;;;;13.08;19.93;97629.53;10459658;28;20041;-76
2021/04/26 15:53:55;;;;;;;3.53;1.55;;;;;;;13.17;19.78;97625.09;10473889;28;20041;-75
2021/04/26 15:59:15;;;;;;;5.63;0.73;;;;;;;13.05;19.84;97624.44;10485914;28;20055;-74
2021/04/26 16:04:36;;;;;;;2.40;0.70;;;;;;;12.97;20.04;97621.16;10471428;28;20048;-73
2021/04/26 16:09:56;;;;;;;2.65;0.60;;;;;;;12.76;20.08;97616.50;10457077;28;20394;-73
2021/04/26 16:15:16;;;;;;;1.55;0.70;;;;;;;12.51;20.00;97614.38;10470932;28;20048;-74
2021/04/26 16:20:37;;;;;;;2.78;0.90;;;;;;;12.29;20.04;97603.34;10470793;28;20051;-73
2021/04/26 16:25:58;;;;;;;2.10;0.52;;;;;;;12.21;20.31;97605.66;10443281;28;20041;-74
2021/04/26 16:31:18;;;;;;;1.55;0.60;;;;;;;12.18;20.10;97595.69;10469541;28;20078;-73
2021/04/26 16:36:39;;;;;;;2.50;0.60;;;;;;;12.10;20.10;97592.41;10470482;28;20053;-73
2021/04/26 16:42:00;;;;;;;5.38;0.60;;;;;;;11.81;20.12;97590.00;10456056;28;20122;-74
2021/04/26 16:47:20;;;;;;;1.70;0.52;;;;;;;11.66;20.27;97588.38;10469888;28;20044;-74
2021/04/26 16:52:40;;;;;;;4.57;0.90;;;;;;;11.46;20.26;97584.34;10469192;28;20040;-75
2021/04/26 16:58:02;;;;;;;1.80;0.70;;;;;;;11.34;20.49;97573.16;10465970;28;20041;-74
2021/04/26 17:03:27;;;;;;;2.40;0.70;;;;;;;11.16;20.96;97578.34;10478671;28;20116;-74
2021/04/26 17:08:47;;;;;;;1.58;0.60;;;;;;;10.98;21.24;97577.19;10455085;28;20056;-74
2021/04/26 17:14:07;;;;;;;2.58;0.90;;;;;;;10.86;21.66;97570.84;10469420;28;20049;-74
2021/04/26 17:19:28;;;;;;;5.00;0.85;;;;;;;10.76;21.90;97570.94;10483101;28;20406;-74
2021/04/26 17:24:50;;;;;;;1.33;0.70;;;;;;;10.58;22.07;97570.47;10469025;28;20040;-74
2021/04/26 17:30:11;;;;;;;2.00;0.93;;;;;;;10.48;22.23;97564.25;10469155;28;20037;-75
2021/04/26 17:35:31;;;;;;;2.05;1.13;;;;;;;10.46;22.83;97571.78;10468954;28;20499;-74
2021/04/26 17:40:52;;;;;;;2.95;1.00;;;;;;;10.34;22.28;97570.97;10471575;28;20049;-74
2021/04/26 17:46:12;;;;;;;1.67;0.95;;;;;;;10.23;22.80;97567.53;10476844;28;20395;-74
2021/04/26 17:51:33;;;;;;;2.08;0.85;;;;;;;10.07;22.85;97568.47;10462699;28;20468;-74
2021/04/26 17:56:54;;;;;;;2.88;0.70;;;;;;;9.89;22.96;97562.41;10476631;28;20102;-74
2021/04/26 18:02:14;;;;;;;2.20;0.90;;;;;;;9.76;23.32;97572.03;10476411;28;20040;-74
2021/04/26 18:07:34;;;;;;;4.13;1.00;;;;;;;9.54;23.16;97578.84;10489623;28;20060;-74
2021/04/26 18:12:54;;;;;;;2.75;0.90;;;;;;;9.40;23.38;97573.78;10475949;28;20434;-74
2021/04/26 18:18:15;;;;;;;2.08;0.90;;;;;;;9.26;24.10;97566.47;10475496;28;20534;-74
2021/04/26 18:23:39;;;;;;;2.42;0.90;;;;;;;9.11;23.92;97581.47;10461658;28;20048;-73
2021/04/26 18:28:59;;;;;;;2.90;0.88;;;;;;;8.98;24.30;97581.94;10475280;28;20086;-73
2021/04/26 18:34:20;;;;;;;5.60;1.00;;;;;;;8.81;24.33;97580.78;10474948;28;20395;-74
2021/04/26 18:39:40;;;;;;;3.15;1.00;;;;;;;8.72;25.14;97594.72;10488530;28;20041;-73
2021/04/26 18:45:01;;;;;;;3.83;1.02;;;;;;;8.62;24.77;97603.06;10474411;28;20053;-73
2021/04/26 18:50:21;;;;;;;3.17;1.20;;;;;;;8.54;25.47;97608.03;10474316;28;20055;-73
2021/04/26 18:55:41;;;;;;;3.17;1.25;;;;;;;8.41;25.42;97611.97;10459690;28;20044;-73
2021/04/26 19:01:02;;;;;;;4.60;1.30;;;;;;;8.28;26.67;97626.25;10487842;28;20067;-73
2021/04/26 19:06:23;;;;;;;3.83;1.42;;;;;;;8.09;26.70;97631.78;10459536;28;20045;-74
2021/04/26 19:11:45;;;;;;;4.43;1.70;;;;;;;7.98;26.85;97638.63;10473438;28;20399;-73
2021/04/26 19:17:08;;;;;;;4.10;1.58;;;;;;;7.89;27.16;97642.09;10474207;28;20040;-74
2021/04/26 19:22:28;;;;;;;3.53;1.20;;;;;;;7.86;27.24;97648.81;10486855;28;20048;-75
2021/04/26 19:27:49;;;;;;;4.40;1.38;;;;;;;7.77;27.57;97652.28;10487013;28;20525;-74
2021/04/26 19:33:10;;;;;;;3.90;1.50;;;;;;;7.70;28.15;97654.59;10472538;28;20048;-74
2021/04/26 19:38:30;;;;;;;3.65;1.10;;;;;;;7.61;28.48;97660.09;10486475;28;20041;-74
2021/04/26 19:43:50;;;;;;;4.75;1.33;;;;;;;7.49;28.46;97665.44;10472065;28;20041;-73
2021/04/26 19:49:12;;;;;;;2.35;1.13;;;;;;;7.42;29.13;97669.78;10472110;28;20040;-74
2021/04/26 19:54:33;;;;;;;4.13;1.33;;;;;;;7.40;29.45;97663.34;10457992;28;20048;-74
2021/04/26 19:59:53;;;;;;;3.92;0.98;;;;;;;7.37;28.88;97681.19;10457810;28;20044;-75
2021/04/26 20:05:15;;;;;;;3.80;1.20;;;;;;;7.32;29.02;97673.81;10456371;28;20047;-75
2021/04/26 20:10:37;;;;;;;3.55;1.35;;;;;;;7.24;29.23;97684.28;10467602;28;20047;-75
2021/04/26 20:15:58;;;;;;;6.03;1.35;;;;;;;7.17;29.96;97689.38;10481740;28;20049;-75
2021/04/26 20:21:18;;;;;;;5.65;2.70;;;;;;;7.08;29.58;97678.19;10453699;28;20045;-76
2021/04/26 20:26:40;;;;;;;4.38;1.50;;;;;;;7.00;29.87;97681.06;10481421;28;20487;-75
2021/04/26 20:32:00;;;;;;;3.58;1.40;;;;;;;6.93;29.81;97684.63;10467118;28;20822;-75
2021/04/26 20:37:21;;;;;;;5.00;3.42;;;;;;;6.90;30.65;97683.03;10462472;28;20086;-74
2021/04/26 20:42:42;;;;;;;3.33;1.52;;;;;;;6.83;30.32;97681.06;10442470;28;20066;-74
2021/04/26 20:48:03;;;;;;;3.00;1.48;;;;;;;6.73;30.17;97685.78;10483574;28;20040;-74
2021/04/26 20:53:23;;;;;;;9.40;1.70;;;;;;;6.71;30.15;97682.84;10452823;28;20056;-74
2021/04/26 20:58:43;;;;;;;4.68;1.90;;;;;;;6.64;31.10;97678.09;10469413;28;20384;-75
2021/04/26 21:04:04;;;;;;;4.63;2.25;;;;;;;6.52;31.17;97694.50;10455343;28;20041;-75
2021/04/26 21:09:24;;;;;;;6.45;2.05;;;;;;;6.44;30.74;97683.47;10427388;28;20056;-74
2021/04/26 21:14:45;;;;;;;5.68;1.88;;;;;;;6.35;31.08;97686.88;10441079;28;20041;-75
2021/04/26 21:20:09;;;;;;;5.82;2.00;;;;;;;6.28;31.64;97690.47;10427905;28;20045;-75
2021/04/26 21:25:30;;;;;;;4.38;1.95;;;;;;;6.24;31.28;97692.88;10441099;28;20518;-75
2021/04/26 21:30:50;;;;;;;5.03;2.13;;;;;;;6.19;31.52;97680.00;10427368;28;20044;-75
2021/04/26 21:36:11;;;;;;;6.38;2.10;;;;;;;6.13;31.43;97687.81;10440900;28;20045;-75
2021/04/26 21:41:31;;;;;;;3.90;1.90;;;;;;;6.09;31.68;97682.69;10441107;28;20075;-74
2021/04/26 21:46:52;;;;;;;7.15;2.17;;;;;;;5.95;31.76;97679.44;10440753;28;20041;-74
2021/04/26 21:52:12;;;;;;;4.47;1.98;;;;;;;5.83;32.28;97678.41;10440611;28;20037;-75
2021/04/26 21:57:33;;;;;;;4.13;1.83;;;;;;;5.71;32.01;97682.91;10427020;28;20045;-74
2021/04/26 22:02:53;;;;;;;5.25;2.17;;;;;;;5.60;32.23;97672.28;10426530;28;20437;-74
2021/04/26 22:08:14;;;;;;;4.30;1.83;;;;;;;5.52;32.82;97666.03;10480527;28;20049;-75
2021/04/26 22:13:34;;;;;;;7.25;2.10;;;;;;;5.41;32.97;97665.19;10440167;28;20047;-74
2021/04/26 22:18:55;;;;;;;5.38;1.90;;;;;;;5.39;33.22;97673.28;10467903;28;20064;-74
2021/04/26 22:24:17;;;;;;;4.13;1.73;;;;;;;5.33;33.30;97661.72;10467970;28;20048;-74
2021/04/26 22:29:38;;;;;;;5.35;1.90;;;;;;;5.26;33.53;97668.00;10473224;28;20045;-74
2021/04/26 22:34:59;;;;;;;6.78;1.92;;;;;;;5.18;33.73;97661.78;10489358;28;20037;-74
2021/04/26 22:40:31;;;;;;;5.32;1.70;;;;;;;5.13;33.76;97654.44;10461000;28;20049;-74
2021/04/26 22:45:51;;;;;;;4.85;2.38;;;;;;;5.11;34.15;97645.94;10476047;28;20041;-74
2021/04/26 22:51:12;;;;;;;6.70;1.85;;;;;;;5.07;34.27;97645.59;10474427;28;20044;-74
2021/04/26 22:56:32;;;;;;;5.05;2.00;;;;;;;5.00;34.26;97643.59;10474296;28;20044;-74
2021/04/26 23:01:52;;;;;;;5.82;2.00;;;;;;;4.85;34.64;97647.91;10459965;28;20052;-74
2021/04/26 23:07:13;;;;;;;4.70;2.50;;;;;;;4.75;34.77;97638.72;10459894;28;20068;-74
2021/04/26 23:12:33;;;;;;;8.93;2.53;;;;;;;4.69;34.95;97631.91;10473583;28;20048;-74
2021/04/26 23:17:54;;;;;;;5.72;2.15;;;;;;;4.61;35.26;97623.63;10473635;28;20067;-74
2021/04/26 23:23:15;;;;;;;7.38;2.38;;;;;;;4.58;35.36;97625.50;10459248;28;20049;-74
2021/04/26 23:28:36;;;;;;;8.27;2.38;;;;;;;4.49;35.52;97615.00;10459162;28;20047;-74
2021/04/26 23:33:57;;;;;;;7.35;2.92;;;;;;;4.47;35.67;97609.31;10472844;28;20052;-74
2021/04/26 23:39:17;;;;;;;5.90;2.33;;;;;;;4.38;36.38;97600.84;10472195;28;20494;-74
2021/04/26 23:44:37;;;;;;;6.32;2.63;;;;;;;4.30;36.05;97607.13;10458513;28;20040;-74
2021/04/26 23:50:03;;;;;;;4.13;1.95;;;;;;;4.25;36.58;97591.50;10458104;28;20047;-74
2021/04/26 23:55:23;;;;;;;5.18;2.75;;;;;;;4.21;36.32;97587.63;10486579;28;20467;-74
